createdAt,value
2017-08-14T00:00:26.896Z,15.60
2017-08-14T00:02:54.299Z,15.60
2017-08-14T00:05:21.726Z,15.60
2017-08-14T00:07:49.164Z,15.70
2017-08-14T00:10:16.934Z,15.70
2017-08-14T00:12:44.599Z,15.70
2017-08-14T00:15:12.015Z,15.70
2017-08-14T00:17:40.515Z,15.50
2017-08-14T00:20:07.983Z,15.50
2017-08-14T00:22:35.441Z,15.50
2017-08-14T00:25:02.895Z,15.50
2017-08-14T00:27:30.298Z,15.50
2017-08-14T00:29:57.804Z,15.50
2017-08-14T00:32:25.210Z,15.50
2017-08-14T00:34:52.621Z,15.60
2017-08-14T00:37:20.155Z,15.70
2017-08-14T00:39:47.571Z,15.70
2017-08-14T00:42:15.002Z,15.70
2017-08-14T00:44:42.427Z,15.70
2017-08-14T00:47:09.895Z,15.80
2017-08-14T00:49:37.936Z,15.80
2017-08-14T00:52:06.110Z,15.70
2017-08-14T00:54:34.282Z,15.80
2017-08-14T00:57:02.724Z,15.70
2017-08-14T00:59:30.146Z,15.70
2017-08-14T01:01:57.564Z,15.70
2017-08-14T01:04:25.771Z,15.60
2017-08-14T01:06:53.190Z,15.50
2017-08-14T01:09:20.600Z,15.50
2017-08-14T01:11:48.011Z,15.40
2017-08-14T01:14:16.206Z,15.40
2017-08-14T01:16:43.621Z,15.40
2017-08-14T01:19:11.140Z,15.40
2017-08-14T01:21:38.551Z,15.30
2017-08-14T01:24:06.740Z,15.40
2017-08-14T01:26:34.918Z,15.40
2017-08-14T01:29:02.336Z,15.40
2017-08-14T01:31:29.750Z,15.40
2017-08-14T01:33:57.166Z,15.40
2017-08-14T01:36:25.391Z,15.40
2017-08-14T01:38:52.839Z,15.40
2017-08-14T01:41:20.262Z,15.40
2017-08-14T01:43:47.752Z,15.40
2017-08-14T01:46:15.168Z,15.30
2017-08-14T01:51:06.645Z,15.30
2017-08-14T01:53:34.072Z,15.30
2017-08-14T01:56:01.501Z,15.20
2017-08-14T01:58:29.737Z,15.30
2017-08-14T02:00:57.296Z,15.30
2017-08-14T02:03:24.798Z,15.20
2017-08-14T02:05:52.258Z,15.20
2017-08-14T02:08:19.682Z,15.00
2017-08-14T02:10:47.105Z,15.00
2017-08-14T02:13:14.529Z,14.90
2017-08-14T02:15:41.986Z,14.80
2017-08-14T02:18:09.397Z,14.70
2017-08-14T02:20:36.817Z,14.70
2017-08-14T02:23:04.269Z,14.70
2017-08-14T02:25:31.697Z,14.70
2017-08-14T02:27:59.934Z,14.60
2017-08-14T02:30:27.444Z,14.60
2017-08-14T02:32:54.881Z,14.60
2017-08-14T02:35:22.319Z,14.50
2017-08-14T02:37:49.747Z,14.50
2017-08-14T02:40:17.168Z,14.60
2017-08-14T02:42:44.598Z,14.50
2017-08-14T02:45:12.027Z,14.50
2017-08-14T02:47:41.342Z,14.50
2017-08-14T02:50:08.758Z,14.40
2017-08-14T02:52:37.083Z,14.40
2017-08-14T02:55:04.538Z,14.40
2017-08-14T02:57:31.996Z,14.40
2017-08-14T02:59:59.421Z,14.40
2017-08-14T03:02:26.843Z,14.40
2017-08-14T03:04:54.389Z,14.30
2017-08-14T03:07:21.812Z,14.30
2017-08-14T03:09:49.369Z,14.30
2017-08-14T03:12:16.845Z,14.30
2017-08-14T03:14:44.292Z,14.20
2017-08-14T03:17:11.724Z,14.20
2017-08-14T03:19:39.150Z,14.20
2017-08-14T03:22:06.581Z,14.10
2017-08-14T03:24:34.011Z,14.10
2017-08-14T03:27:01.480Z,14.10
2017-08-14T03:29:28.894Z,14.10
2017-08-14T03:31:57.087Z,14.10
2017-08-14T03:34:24.507Z,14.00
2017-08-14T03:36:52.721Z,14.00
2017-08-14T03:39:20.140Z,14.00
2017-08-14T03:41:48.365Z,13.90
2017-08-14T03:44:15.810Z,13.90
2017-08-14T03:46:43.242Z,14.00
2017-08-14T03:49:10.660Z,13.80
2017-08-14T03:51:38.089Z,13.80
2017-08-14T03:54:05.544Z,13.80
2017-08-14T03:56:33.001Z,13.80
2017-08-14T03:59:00.420Z,13.80
2017-08-14T04:01:27.920Z,13.80
2017-08-14T04:03:55.367Z,13.80
2017-08-14T04:06:22.837Z,13.70
2017-08-14T04:08:50.259Z,13.60
2017-08-14T04:11:17.689Z,13.60
2017-08-14T04:13:45.109Z,13.60
2017-08-14T04:16:12.653Z,13.70
2017-08-14T04:18:40.072Z,13.50
2017-08-14T04:21:07.493Z,13.40
2017-08-14T04:23:34.912Z,13.40
2017-08-14T04:26:02.336Z,13.40
2017-08-14T04:28:29.838Z,13.30
2017-08-14T04:30:57.265Z,13.30
2017-08-14T04:33:24.689Z,13.30
2017-08-14T04:35:52.137Z,13.30
2017-08-14T04:38:20.332Z,13.20
2017-08-14T04:40:47.827Z,13.20
2017-08-14T04:43:15.284Z,13.30
2017-08-14T04:45:42.803Z,13.40
2017-08-14T04:48:11.012Z,13.50
2017-08-14T04:50:38.470Z,13.50
2017-08-14T04:53:05.900Z,13.60
2017-08-14T04:55:33.329Z,13.50
2017-08-14T04:58:01.523Z,13.50
2017-08-14T05:00:28.940Z,13.50
2017-08-14T05:02:56.464Z,13.50
2017-08-14T05:05:23.888Z,13.60
2017-08-14T05:07:51.317Z,13.60
2017-08-14T05:10:18.832Z,13.60
2017-08-14T05:12:46.291Z,13.70
2017-08-14T05:15:13.712Z,13.60
2017-08-14T05:17:41.306Z,13.70
2017-08-14T05:20:08.720Z,13.70
2017-08-14T05:22:36.912Z,13.70
2017-08-14T05:25:04.342Z,13.70
2017-08-14T05:27:31.761Z,13.80
2017-08-14T05:29:59.188Z,13.80
2017-08-14T05:32:26.700Z,13.80
2017-08-14T05:34:54.158Z,13.90
2017-08-14T05:37:21.564Z,13.90
2017-08-14T05:39:49.864Z,14.00
2017-08-14T05:42:17.295Z,14.00
2017-08-14T05:44:44.717Z,14.00
2017-08-14T05:47:12.248Z,14.00
2017-08-14T05:49:39.670Z,14.00
2017-08-14T05:52:07.089Z,14.10
2017-08-14T05:54:34.600Z,14.30
2017-08-14T05:57:02.020Z,14.40
2017-08-14T05:59:30.267Z,14.40
2017-08-14T06:01:57.691Z,14.30
2017-08-14T06:04:25.116Z,14.40
2017-08-14T06:06:53.312Z,14.40
2017-08-14T06:09:20.732Z,14.40
2017-08-14T06:11:48.930Z,14.50
2017-08-14T06:14:16.356Z,14.50
2017-08-14T06:16:43.992Z,14.60
2017-08-14T06:19:11.440Z,14.60
2017-08-14T06:21:38.865Z,14.70
2017-08-14T06:24:06.339Z,14.70
2017-08-14T06:26:33.781Z,14.80
2017-08-14T06:29:01.204Z,14.90
2017-08-14T06:31:29.437Z,15.10
2017-08-14T06:33:56.897Z,15.00
2017-08-14T06:36:24.730Z,15.10
2017-08-14T06:38:52.212Z,15.20
2017-08-14T06:41:19.644Z,15.30
2017-08-14T06:43:47.056Z,15.30
2017-08-14T06:46:14.509Z,15.40
2017-08-14T06:48:41.920Z,15.50
2017-08-14T06:51:09.349Z,15.50
2017-08-14T06:53:37.529Z,15.70
2017-08-14T06:56:04.952Z,15.70
2017-08-14T06:58:32.574Z,15.80
2017-08-14T07:00:59.996Z,15.80
2017-08-14T07:03:27.496Z,15.90
2017-08-14T07:05:54.934Z,15.90
2017-08-14T07:08:22.345Z,16.00
2017-08-14T07:10:50.576Z,16.20
2017-08-14T07:13:17.992Z,16.10
2017-08-14T07:15:45.412Z,16.20
2017-08-14T07:18:12.834Z,16.30
2017-08-14T07:20:40.260Z,16.40
2017-08-14T07:23:07.863Z,16.50
2017-08-14T07:25:35.285Z,16.60
2017-08-14T07:28:02.765Z,16.70
2017-08-14T07:30:30.188Z,16.70
2017-08-14T07:32:57.644Z,16.70
2017-08-14T07:35:25.855Z,16.70
2017-08-14T07:37:53.284Z,16.70
2017-08-14T07:40:20.707Z,16.80
2017-08-14T07:42:48.144Z,16.80
2017-08-14T07:45:15.580Z,16.90
2017-08-14T07:47:43.066Z,16.90
2017-08-14T07:50:10.485Z,17.00
2017-08-14T07:52:37.941Z,17.10
2017-08-14T07:55:05.411Z,17.20
2017-08-14T07:57:32.868Z,17.30
2017-08-14T08:00:00.317Z,17.30
2017-08-14T08:02:27.721Z,17.40
2017-08-14T08:04:55.149Z,17.60
2017-08-14T08:07:22.596Z,17.60
2017-08-14T08:09:50.000Z,17.60
2017-08-14T08:12:17.426Z,17.60
2017-08-14T08:14:44.853Z,17.80
2017-08-14T08:17:12.313Z,17.80
2017-08-14T08:19:39.736Z,17.90
2017-08-14T08:22:07.156Z,17.90
2017-08-14T08:24:34.667Z,18.00
2017-08-14T08:27:02.097Z,18.10
2017-08-14T08:29:29.521Z,18.20
2017-08-14T08:31:56.944Z,18.20
2017-08-14T08:34:24.384Z,18.20
2017-08-14T08:36:51.848Z,18.30
2017-08-14T08:39:19.273Z,18.40
2017-08-14T08:41:47.454Z,18.50
2017-08-14T08:44:14.880Z,18.40
2017-08-14T08:46:42.327Z,18.50
2017-08-14T08:49:09.817Z,18.50
2017-08-14T08:51:37.257Z,18.60
2017-08-14T08:54:04.680Z,18.60
2017-08-14T08:56:32.140Z,18.60
2017-08-14T08:58:59.699Z,18.80
2017-08-14T09:01:27.124Z,18.80
2017-08-14T09:03:55.325Z,18.90
2017-08-14T09:06:22.752Z,18.90
2017-08-14T09:08:50.240Z,18.90
2017-08-14T09:11:17.681Z,19.00
2017-08-14T09:13:45.105Z,19.00
2017-08-14T09:16:13.298Z,19.10
2017-08-14T09:18:40.731Z,19.10
2017-08-14T09:21:08.917Z,19.20
2017-08-14T09:23:36.436Z,19.10
2017-08-14T09:26:03.897Z,19.30
2017-08-14T09:28:31.314Z,19.40
2017-08-14T09:30:58.740Z,19.50
2017-08-14T09:33:26.172Z,19.60
2017-08-14T09:35:53.654Z,19.70
2017-08-14T09:38:21.081Z,19.70
2017-08-14T09:40:48.508Z,19.80
2017-08-14T09:43:15.933Z,19.80
2017-08-14T09:45:43.352Z,19.80
2017-08-14T09:48:10.781Z,19.90
2017-08-14T09:50:38.979Z,20.10
2017-08-14T09:53:06.401Z,20.10
2017-08-14T09:55:33.829Z,20.20
2017-08-14T09:58:01.275Z,20.20
2017-08-14T10:00:28.740Z,20.30
2017-08-14T10:02:56.168Z,20.30
2017-08-14T10:05:23.666Z,20.40
2017-08-14T10:07:51.101Z,20.40
2017-08-14T10:10:18.552Z,20.50
2017-08-14T10:12:45.985Z,20.50
2017-08-14T10:15:13.472Z,20.50
2017-08-14T10:17:40.933Z,20.50
2017-08-14T10:20:08.363Z,20.60
2017-08-14T10:22:35.786Z,20.60
2017-08-14T10:25:03.974Z,20.70
2017-08-14T10:27:32.165Z,20.70
2017-08-14T10:29:59.656Z,20.70
2017-08-14T10:32:27.095Z,20.80
2017-08-14T10:34:54.529Z,20.80
2017-08-14T10:37:22.007Z,20.90
2017-08-14T10:39:49.423Z,21.10
2017-08-14T10:42:17.609Z,21.10
2017-08-14T10:44:45.103Z,21.10
2017-08-14T10:47:12.525Z,21.20
2017-08-14T10:49:39.940Z,21.30
2017-08-14T10:52:07.469Z,21.50
2017-08-14T10:54:34.916Z,21.50
2017-08-14T10:57:02.324Z,21.60
2017-08-14T10:59:30.508Z,21.60
2017-08-14T11:01:58.700Z,21.80
2017-08-14T11:04:26.120Z,21.70
2017-08-14T11:06:54.354Z,21.90
2017-08-14T11:09:21.789Z,21.90
2017-08-14T11:11:49.205Z,21.90
2017-08-14T11:14:16.720Z,21.90
2017-08-14T11:16:44.165Z,22.00
2017-08-14T11:19:11.568Z,22.10
2017-08-14T11:21:38.994Z,22.20
2017-08-14T11:24:06.417Z,22.40
2017-08-14T11:26:33.837Z,22.50
2017-08-14T11:29:01.264Z,22.60
2017-08-14T11:31:28.703Z,22.70
2017-08-14T11:33:56.115Z,22.70
2017-08-14T11:36:24.326Z,23.10
2017-08-14T11:38:51.801Z,23.10
2017-08-14T11:41:19.270Z,23.10
2017-08-14T11:43:46.707Z,23.00
2017-08-14T11:46:14.120Z,23.00
2017-08-14T11:48:42.305Z,23.40
2017-08-14T11:51:09.808Z,23.30
2017-08-14T11:53:37.236Z,23.50
2017-08-14T11:56:04.673Z,23.70
2017-08-14T11:58:32.117Z,24.20
2017-08-14T12:01:00.336Z,23.80
2017-08-14T12:03:27.761Z,23.70
2017-08-14T12:05:55.179Z,23.90
2017-08-14T12:08:22.593Z,24.70
2017-08-14T12:10:50.037Z,25.30
2017-08-14T12:13:17.452Z,25.60
2017-08-14T12:15:44.868Z,25.30
2017-08-14T12:18:12.297Z,25.90
2017-08-14T12:20:39.708Z,26.10
2017-08-14T12:23:07.330Z,26.40
2017-08-14T12:25:34.756Z,25.80
2017-08-14T12:28:02.969Z,27.40
2017-08-14T12:30:30.424Z,27.30
2017-08-14T12:32:57.883Z,27.60
2017-08-14T12:35:25.301Z,28.50
2017-08-14T12:37:53.489Z,27.40
2017-08-14T12:40:21.075Z,27.40
2017-08-14T12:42:48.628Z,26.30
2017-08-14T12:45:16.049Z,27.00
2017-08-14T12:47:43.466Z,27.80
2017-08-14T12:50:10.885Z,29.00
2017-08-14T12:52:38.346Z,30.40
2017-08-14T12:55:05.769Z,32.10
2017-08-14T12:57:33.258Z,32.70
2017-08-14T13:00:00.661Z,32.60
2017-08-14T13:02:28.177Z,32.30
2017-08-14T13:04:55.598Z,32.60
2017-08-14T13:07:23.013Z,33.10
2017-08-14T13:09:50.441Z,33.10
2017-08-14T13:12:17.873Z,33.60
2017-08-14T13:14:45.304Z,34.80
2017-08-14T13:17:13.529Z,33.10
2017-08-14T13:19:40.980Z,33.10
2017-08-14T13:22:08.443Z,31.20
2017-08-14T13:24:35.874Z,30.70
2017-08-14T13:27:03.296Z,29.80
2017-08-14T13:29:30.704Z,31.40
2017-08-14T13:31:58.145Z,31.70
2017-08-14T13:34:25.617Z,31.40
2017-08-14T13:36:53.044Z,31.90
2017-08-14T13:39:20.470Z,32.80
2017-08-14T13:41:47.887Z,32.30
2017-08-14T13:44:15.440Z,32.50
2017-08-14T13:46:42.853Z,33.50
2017-08-14T13:49:10.460Z,32.70
2017-08-14T13:51:38.015Z,33.60
2017-08-14T13:54:05.428Z,32.80
2017-08-14T13:56:32.852Z,32.10
2017-08-14T13:59:00.482Z,32.10
2017-08-14T14:01:27.872Z,32.60
2017-08-14T14:03:55.305Z,33.40
2017-08-14T14:06:22.776Z,31.90
2017-08-14T14:08:50.311Z,30.70
2017-08-14T14:11:17.774Z,29.80
2017-08-14T14:13:45.324Z,29.40
2017-08-14T14:16:12.737Z,29.90
2017-08-14T14:18:40.924Z,32.30
2017-08-14T14:21:08.405Z,32.30
2017-08-14T14:23:35.821Z,31.90
2017-08-14T14:26:03.292Z,31.40
2017-08-14T14:28:30.704Z,30.20
2017-08-14T14:30:58.135Z,29.60
2017-08-14T14:33:25.568Z,28.40
2017-08-14T14:35:53.052Z,29.10
2017-08-14T14:38:20.474Z,29.80
2017-08-14T14:40:47.888Z,30.40
2017-08-14T14:43:15.412Z,30.10
2017-08-14T14:45:42.870Z,29.90
2017-08-14T14:48:10.292Z,30.10
2017-08-14T14:50:37.715Z,28.60
2017-08-14T14:53:05.158Z,28.60
2017-08-14T14:55:32.590Z,28.60
2017-08-14T14:58:00.018Z,28.60
2017-08-14T15:00:27.428Z,29.30
2017-08-14T15:02:54.852Z,29.30
2017-08-14T15:05:22.271Z,28.50
2017-08-14T15:07:49.700Z,27.70
2017-08-14T15:10:17.225Z,28.80
2017-08-14T15:12:44.624Z,29.50
2017-08-14T15:15:12.044Z,29.30
2017-08-14T15:17:39.477Z,29.10
2017-08-14T15:20:06.956Z,28.30
2017-08-14T15:22:34.443Z,28.50
2017-08-14T15:25:01.877Z,28.90
2017-08-14T15:27:29.357Z,28.60
2017-08-14T15:29:56.798Z,28.70
2017-08-14T15:32:24.262Z,28.20
2017-08-14T15:34:51.717Z,28.40
2017-08-14T15:37:19.136Z,29.30
2017-08-14T15:39:46.572Z,28.80
2017-08-14T15:42:14.805Z,29.40
2017-08-14T15:44:42.265Z,29.40
2017-08-14T15:47:09.743Z,29.70
2017-08-14T15:49:37.164Z,29.40
2017-08-14T15:52:04.636Z,30.20
2017-08-14T15:54:32.112Z,30.40
2017-08-14T15:56:59.530Z,29.70
2017-08-14T15:59:26.947Z,29.20
2017-08-14T16:01:55.132Z,29.20
2017-08-14T16:04:23.347Z,29.30
2017-08-14T16:06:50.855Z,29.30
2017-08-14T16:09:18.302Z,29.60
2017-08-14T16:11:45.729Z,29.30
2017-08-14T16:14:13.154Z,28.90
2017-08-14T16:16:40.585Z,28.50
2017-08-14T16:19:08.005Z,27.80
2017-08-14T16:21:35.427Z,26.80
2017-08-14T16:24:02.989Z,26.30
2017-08-14T16:26:30.440Z,26.00
2017-08-14T16:28:57.856Z,25.80
2017-08-14T16:31:26.044Z,25.50
2017-08-14T16:33:53.474Z,25.40
2017-08-14T16:36:20.921Z,25.30
2017-08-14T16:38:48.341Z,25.10
2017-08-14T16:41:15.802Z,25.40
2017-08-14T16:43:43.255Z,25.40
2017-08-14T16:46:10.679Z,25.20
2017-08-14T16:48:38.095Z,25.10
2017-08-14T16:51:05.616Z,25.10
2017-08-14T16:53:33.016Z,25.20
2017-08-14T16:56:00.532Z,25.10
2017-08-14T16:58:27.950Z,25.40
2017-08-14T17:00:56.139Z,25.40
2017-08-14T17:03:23.564Z,25.40
2017-08-14T17:05:51.748Z,26.10
2017-08-14T17:08:19.932Z,26.20
2017-08-14T17:10:47.360Z,26.20
2017-08-14T17:13:14.879Z,25.80
2017-08-14T17:15:42.444Z,25.20
2017-08-14T17:18:09.924Z,25.10
2017-08-14T17:20:37.353Z,24.90
2017-08-14T17:23:04.772Z,25.00
2017-08-14T17:25:32.257Z,25.10
2017-08-14T17:27:59.727Z,25.20
2017-08-14T17:30:27.135Z,25.40
2017-08-14T17:32:55.349Z,25.10
2017-08-14T17:35:22.755Z,25.10
2017-08-14T17:37:50.281Z,25.00
2017-08-14T17:40:17.870Z,24.50
2017-08-14T17:42:45.394Z,24.50
2017-08-14T17:45:13.572Z,24.40
2017-08-14T17:47:41.013Z,24.40
2017-08-14T17:50:09.193Z,24.20
2017-08-14T17:52:36.616Z,24.10
2017-08-14T17:55:04.041Z,24.00
2017-08-14T17:57:31.487Z,23.90
2017-08-14T17:59:58.901Z,23.90
2017-08-14T18:02:27.161Z,23.70
2017-08-14T18:04:54.568Z,23.70
2017-08-14T18:07:22.040Z,23.70
2017-08-14T18:09:49.483Z,23.70
2017-08-14T18:12:16.912Z,23.60
2017-08-14T18:14:44.337Z,23.60
2017-08-14T18:17:11.761Z,23.50
2017-08-14T18:19:39.213Z,23.50
2017-08-14T18:22:06.632Z,23.50
2017-08-14T18:24:34.844Z,23.30
2017-08-14T18:27:02.306Z,23.30
2017-08-14T18:29:29.749Z,23.30
2017-08-14T18:31:57.216Z,23.30
2017-08-14T18:34:24.629Z,23.30
2017-08-14T18:36:52.812Z,23.10
2017-08-14T18:39:20.302Z,23.10
2017-08-14T18:41:47.733Z,23.10
2017-08-14T18:44:15.217Z,23.00
2017-08-14T18:46:42.791Z,23.00
2017-08-14T18:49:10.219Z,23.00
2017-08-14T18:51:37.639Z,22.90
2017-08-14T18:54:05.817Z,22.70
2017-08-14T18:56:33.255Z,22.70
2017-08-14T18:59:00.712Z,22.70
2017-08-14T19:01:28.891Z,22.70
2017-08-14T19:03:57.069Z,22.70
2017-08-14T19:06:25.289Z,22.70
2017-08-14T19:08:54.392Z,22.60
2017-08-14T19:11:20.183Z,22.60
2017-08-14T19:13:47.604Z,22.60
2017-08-14T19:16:15.830Z,22.50
2017-08-14T19:18:43.242Z,22.50
2017-08-14T19:21:11.433Z,22.30
2017-08-14T19:23:38.880Z,22.30
2017-08-14T19:26:07.085Z,22.20
2017-08-14T19:28:34.536Z,22.30
2017-08-14T19:31:01.996Z,22.20
2017-08-14T19:33:29.492Z,22.10
2017-08-14T19:35:56.910Z,22.10
2017-08-14T19:38:24.332Z,22.00
2017-08-14T19:40:52.515Z,22.00
2017-08-14T19:43:19.928Z,22.00
2017-08-14T19:45:47.354Z,21.90
2017-08-14T19:48:14.766Z,21.90
2017-08-14T19:50:43.081Z,21.80
2017-08-14T19:53:10.504Z,21.80
2017-08-14T19:55:37.991Z,21.70
2017-08-14T19:58:05.411Z,21.70
2017-08-14T20:00:32.980Z,21.60
2017-08-14T20:03:00.465Z,21.60
2017-08-14T20:05:27.887Z,21.50
2017-08-14T20:07:55.303Z,21.50
2017-08-14T20:10:22.736Z,21.50
2017-08-14T20:12:50.210Z,21.50
2017-08-14T20:15:17.639Z,21.50
2017-08-14T20:17:45.062Z,21.40
2017-08-14T20:20:13.251Z,21.40
2017-08-14T20:22:40.670Z,21.40
2017-08-14T20:25:08.286Z,21.40
2017-08-14T20:27:35.700Z,21.40
2017-08-14T20:30:03.883Z,21.20
2017-08-14T20:32:31.326Z,21.20
2017-08-14T20:34:58.749Z,21.20
2017-08-14T20:37:26.193Z,21.10
2017-08-14T20:39:53.634Z,21.10
2017-08-14T20:42:21.061Z,21.00
2017-08-14T20:44:48.588Z,21.00
2017-08-14T20:47:16.070Z,21.00
2017-08-14T20:49:43.493Z,20.90
2017-08-14T20:52:41.973Z,20.80
2017-08-14T20:55:09.385Z,20.80
2017-08-14T20:57:36.838Z,20.70
2017-08-14T21:00:04.252Z,20.70
2017-08-14T21:02:31.677Z,20.70
2017-08-14T21:04:59.110Z,20.60
2017-08-14T21:07:26.544Z,20.60
2017-08-14T21:09:54.748Z,20.50
2017-08-14T21:12:22.233Z,20.50
2017-08-14T21:14:49.658Z,20.50
2017-08-14T21:17:17.077Z,20.40
2017-08-14T21:19:44.506Z,20.40
2017-08-14T21:22:12.739Z,20.20
2017-08-14T21:24:41.136Z,20.20
2017-08-14T21:27:08.590Z,20.20
2017-08-14T21:29:36.029Z,20.20
2017-08-14T21:32:03.494Z,20.10
2017-08-14T21:34:31.904Z,20.10
2017-08-14T21:36:59.436Z,20.10
2017-08-14T21:39:26.874Z,20.00
2017-08-14T21:41:55.093Z,20.00
2017-08-14T21:44:22.526Z,20.00
2017-08-14T21:46:49.953Z,20.00
2017-08-14T21:49:17.389Z,19.90
2017-08-14T21:51:44.810Z,20.00
2017-08-14T21:54:12.288Z,20.00
2017-08-14T21:56:40.489Z,19.90
2017-08-14T21:59:07.902Z,19.90
2017-08-14T22:01:35.351Z,19.90
2017-08-14T22:04:02.775Z,19.90
2017-08-14T22:06:30.197Z,19.90
2017-08-14T22:08:57.629Z,19.80
2017-08-14T22:11:25.050Z,19.90
2017-08-14T22:13:52.481Z,19.80
2017-08-14T22:16:19.925Z,19.80
2017-08-14T22:18:47.385Z,19.80
2017-08-14T22:21:14.821Z,19.80
2017-08-14T22:23:42.237Z,19.70
2017-08-14T22:26:09.670Z,19.70
2017-08-14T22:28:37.091Z,19.70
2017-08-14T22:31:04.563Z,19.60
2017-08-14T22:33:32.085Z,19.60
2017-08-14T22:36:00.310Z,19.50
2017-08-14T22:38:27.776Z,19.50
2017-08-14T22:40:55.217Z,19.50
2017-08-14T22:43:23.425Z,19.50
2017-08-14T22:45:50.848Z,19.50
2017-08-14T22:48:18.280Z,19.50
2017-08-14T22:50:45.705Z,19.50
2017-08-14T22:53:13.125Z,19.50
2017-08-14T22:55:40.545Z,19.50
2017-08-14T22:58:07.981Z,19.50
2017-08-14T23:00:35.401Z,19.50
2017-08-14T23:03:02.876Z,19.50
2017-08-14T23:05:30.336Z,19.40
2017-08-14T23:07:57.761Z,19.40
2017-08-14T23:10:26.184Z,19.40
2017-08-14T23:12:53.597Z,19.30
2017-08-14T23:15:21.193Z,19.30
2017-08-14T23:17:48.622Z,19.30
2017-08-14T23:20:16.037Z,19.30
2017-08-14T23:22:43.491Z,19.20
2017-08-14T23:25:10.921Z,19.20
2017-08-14T23:27:38.340Z,19.20
2017-08-14T23:30:06.531Z,19.20
2017-08-14T23:32:34.021Z,19.30
2017-08-14T23:35:01.497Z,19.30
2017-08-14T23:37:28.913Z,19.30
2017-08-14T23:39:57.107Z,19.30
2017-08-14T23:42:24.596Z,19.30
2017-08-14T23:44:52.015Z,19.30
2017-08-14T23:47:19.428Z,19.30
2017-08-14T23:49:46.952Z,19.20
2017-08-14T23:52:14.410Z,19.30
2017-08-14T23:54:41.877Z,19.30
2017-08-14T23:57:09.271Z,19.20
2017-08-14T23:59:37.456Z,19.20
